Wheatland, Iowa
Current Conditions -  °F | °C
As of 11:52 AM on Thursday 23 Oct 2014 (Local Time) from KDVN Reporting Station
Overcast Overcast  
Wind Chill: 56°   Ceiling: 6500
Heat Index: 56°   Visibility: 10mi
Dew Point: 42°   Wind: 14mph
Humidity: 60%   Direction: 170°S
Pressure: 30.1"   Gusts: NA
Location:  41.83°N, 90.84°W
Report Text: KDVN 231652Z AUTO 17012KT 10SM SCT026 OVC065 13/06 A3010 RMK AO2 SLP196 T01330056 TSNO
Loading
Personal Weather Stations






























Interactive Weather Map
Tropical Storm Tracking
New forecast layout! Learn more

10-Day Weather Forecast

Advertisements
Track Severe Weather on mobile